sensor_id;sensor_type;location;lat;lon;timestamp;pressure;altitude;pressure_sealevel;temperature;humidity
77469;BME280;68840;50.272;12.818;2023-08-20T00:00:07;96446;;;22.5;77.2
77469;BME280;68840;50.272;12.818;2023-08-20T00:02:08;96446;;;22.5;75.9
77469;BME280;68840;50.272;12.818;2023-08-20T00:04:06;96444;;;22.5;75.9
77469;BME280;68840;50.272;12.818;2023-08-20T00:06:06;96441;;;22.5;75.6
77469;BME280;68840;50.272;12.818;2023-08-20T00:08:06;96439;;;22.5;75.2
77469;BME280;68840;50.272;12.818;2023-08-20T00:10:06;96437;;;22.5;75.9
77469;BME280;68840;50.272;12.818;2023-08-20T00:12:05;96437;;;22.5;76.6
77469;BME280;68840;50.272;12.818;2023-08-20T00:14:05;96440;;;22.4;77.0
77469;BME280;68840;50.272;12.818;2023-08-20T00:16:06;96444;;;22.4;76.5
77469;BME280;68840;50.272;12.818;2023-08-20T00:18:06;96448;;;22.4;77.0
77469;BME280;68840;50.272;12.818;2023-08-20T00:20:11;96444;;;22.4;76.6
77469;BME280;68840;50.272;12.818;2023-08-20T00:22:05;96442;;;22.4;76.1
77469;BME280;68840;50.272;12.818;2023-08-20T00:24:06;96441;;;22.4;76.3
77469;BME280;68840;50.272;12.818;2023-08-20T00:26:06;96443;;;22.4;75.9
77469;BME280;68840;50.272;12.818;2023-08-20T00:28:05;96446;;;22.3;75.7
77469;BME280;68840;50.272;12.818;2023-08-20T00:30:07;96447;;;22.3;75.3
77469;BME280;68840;50.272;12.818;2023-08-20T00:32:06;96446;;;22.3;75.2
77469;BME280;68840;50.272;12.818;2023-08-20T00:34:05;96445;;;22.3;74.7
77469;BME280;68840;50.272;12.818;2023-08-20T00:36:05;96442;;;22.3;75.6
77469;BME280;68840;50.272;12.818;2023-08-20T00:38:06;96440;;;22.3;76.4
77469;BME280;68840;50.272;12.818;2023-08-20T00:40:06;96440;;;22.3;76.5
77469;BME280;68840;50.272;12.818;2023-08-20T00:42:07;96441;;;22.3;76.4
77469;BME280;68840;50.272;12.818;2023-08-20T00:44:05;96444;;;22.3;76.7
77469;BME280;68840;50.272;12.818;2023-08-20T00:46:05;96447;;;22.3;76.7
77469;BME280;68840;50.272;12.818;2023-08-20T00:48:06;96450;;;22.3;76.6
77469;BME280;68840;50.272;12.818;2023-08-20T00:50:06;96454;;;22.3;75.9
77469;BME280;68840;50.272;12.818;2023-08-20T00:52:08;96453;;;22.3;76.4
77469;BME280;68840;50.272;12.818;2023-08-20T00:54:05;96451;;;22.3;75.6
77469;BME280;68840;50.272;12.818;2023-08-20T00:56:06;96449;;;22.3;75.2
77469;BME280;68840;50.272;12.818;2023-08-20T00:58:06;96448;;;22.3;75.1
77469;BME280;68840;50.272;12.818;2023-08-20T01:00:07;96449;;;22.3;75.7
77469;BME280;68840;50.272;12.818;2023-08-20T01:02:06;96450;;;22.3;76.4
77469;BME280;68840;50.272;12.818;2023-08-20T01:04:05;96452;;;22.3;76.7
77469;BME280;68840;50.272;12.818;2023-08-20T01:06:15;96448;;;22.3;76.8
77469;BME280;68840;50.272;12.818;2023-08-20T01:08:15;96445;;;22.3;77.6
77469;BME280;68840;50.272;12.818;2023-08-20T01:10:12;96443;;;22.2;78.6
77469;BME280;68840;50.272;12.818;2023-08-20T01:12:06;96443;;;22.2;78.8
77469;BME280;68840;50.272;12.818;2023-08-20T01:14:14;96443;;;22.2;78.8
77469;BME280;68840;50.272;12.818;2023-08-20T01:16:05;96444;;;22.2;78.6
77469;BME280;68840;50.272;12.818;2023-08-20T01:18:05;96445;;;22.2;78.6
77469;BME280;68840;50.272;12.818;2023-08-20T01:20:07;96447;;;22.2;78.4
77469;BME280;68840;50.272;12.818;2023-08-20T01:24:11;96445;;;22.2;78.7
77469;BME280;68840;50.272;12.818;2023-08-20T01:26:14;96446;;;22.2;78.6
77469;BME280;68840;50.272;12.818;2023-08-20T01:28:16;96446;;;22.2;78.7
77469;BME280;68840;50.272;12.818;2023-08-20T01:30:06;96444;;;22.2;78.8
77469;BME280;68840;50.272;12.818;2023-08-20T01:32:06;96445;;;22.2;78.9
77469;BME280;68840;50.272;12.818;2023-08-20T01:34:05;96445;;;22.2;79.0
77469;BME280;68840;50.272;12.818;2023-08-20T01:36:09;96448;;;22.2;79.1
77469;BME280;68840;50.272;12.818;2023-08-20T01:38:05;96449;;;22.2;79.3
77469;BME280;68840;50.272;12.818;2023-08-20T01:40:07;96453;;;22.1;79.4
77469;BME280;68840;50.272;12.818;2023-08-20T01:42:06;96456;;;22.1;79.6
77469;BME280;68840;50.272;12.818;2023-08-20T01:44:06;96457;;;22.1;79.5
77469;BME280;68840;50.272;12.818;2023-08-20T01:46:07;96459;;;22.1;79.7
77469;BME280;68840;50.272;12.818;2023-08-20T01:48:06;96460;;;22.1;79.4
77469;BME280;68840;50.272;12.818;2023-08-20T01:50:06;96460;;;22.1;79.5
77469;BME280;68840;50.272;12.818;2023-08-20T01:52:05;96460;;;22.1;79.6
77469;BME280;68840;50.272;12.818;2023-08-20T01:54:06;96462;;;22.1;79.6
77469;BME280;68840;50.272;12.818;2023-08-20T01:56:10;96462;;;22.1;79.7
77469;BME280;68840;50.272;12.818;2023-08-20T01:58:05;96464;;;22.1;79.5
77469;BME280;68840;50.272;12.818;2023-08-20T02:00:07;96468;;;22.1;79.7
77469;BME280;68840;50.272;12.818;2023-08-20T02:02:06;96470;;;22.1;79.8
77469;BME280;68840;50.272;12.818;2023-08-20T02:04:05;96474;;;22.1;79.7
77469;BME280;68840;50.272;12.818;2023-08-20T02:06:05;96475;;;22.2;79.7
77469;BME280;68840;50.272;12.818;2023-08-20T02:08:05;96475;;;22.2;79.8
77469;BME280;68840;50.272;12.818;2023-08-20T02:10:06;96475;;;22.2;80.4
77469;BME280;68840;50.272;12.818;2023-08-20T02:12:06;96474;;;22.1;80.5
77469;BME280;68840;50.272;12.818;2023-08-20T02:14:05;96472;;;22.1;80.7
77469;BME280;68840;50.272;12.818;2023-08-20T02:16:06;96472;;;22.1;81.0
77469;BME280;68840;50.272;12.818;2023-08-20T02:18:06;96473;;;22.1;81.4
77469;BME280;68840;50.272;12.818;2023-08-20T02:20:07;96475;;;22.1;81.3
77469;BME280;68840;50.272;12.818;2023-08-20T02:22:05;96478;;;22.1;81.1
77469;BME280;68840;50.272;12.818;2023-08-20T02:24:06;96481;;;22.1;80.9
77469;BME280;68840;50.272;12.818;2023-08-20T02:26:05;96482;;;22.1;81.4
77469;BME280;68840;50.272;12.818;2023-08-20T02:28:05;96485;;;22.1;81.5
77469;BME280;68840;50.272;12.818;2023-08-20T02:30:06;96484;;;22.1;81.7
77469;BME280;68840;50.272;12.818;2023-08-20T02:32:05;96483;;;22.0;81.5
77469;BME280;68840;50.272;12.818;2023-08-20T02:34:05;96484;;;22.0;81.7
77469;BME280;68840;50.272;12.818;2023-08-20T02:36:05;96482;;;22.0;81.8
77469;BME280;68840;50.272;12.818;2023-08-20T02:38:06;96482;;;22.0;81.8
77469;BME280;68840;50.272;12.818;2023-08-20T02:40:07;96479;;;22.0;82.1
77469;BME280;68840;50.272;12.818;2023-08-20T02:42:05;96475;;;22.0;81.9
77469;BME280;68840;50.272;12.818;2023-08-20T02:44:05;96474;;;22.0;81.6
77469;BME280;68840;50.272;12.818;2023-08-20T02:46:05;96474;;;22.0;81.8
77469;BME280;68840;50.272;12.818;2023-08-20T02:48:05;96473;;;22.0;81.7
77469;BME280;68840;50.272;12.818;2023-08-20T02:50:06;96472;;;22.0;81.7
77469;BME280;68840;50.272;12.818;2023-08-20T02:52:05;96471;;;22.0;81.9
77469;BME280;68840;50.272;12.818;2023-08-20T02:54:06;96470;;;22.0;82.0
77469;BME280;68840;50.272;12.818;2023-08-20T02:56:05;96470;;;21.9;81.8
77469;BME280;68840;50.272;12.818;2023-08-20T02:58:07;96473;;;21.9;81.8
77469;BME280;68840;50.272;12.818;2023-08-20T03:00:10;96475;;;21.9;81.7
77469;BME280;68840;50.272;12.818;2023-08-20T03:02:05;96478;;;21.9;81.6
77469;BME280;68840;50.272;12.818;2023-08-20T03:04:05;96479;;;21.9;81.0
77469;BME280;68840;50.272;12.818;2023-08-20T03:06:05;96479;;;21.9;81.0
77469;BME280;68840;50.272;12.818;2023-08-20T03:08:06;96480;;;21.9;81.3
77469;BME280;68840;50.272;12.818;2023-08-20T03:10:06;96481;;;21.9;81.0
77469;BME280;68840;50.272;12.818;2023-08-20T03:12:06;96482;;;21.9;81.2
77469;BME280;68840;50.272;12.818;2023-08-20T03:14:05;96483;;;21.8;81.0
77469;BME280;68840;50.272;12.818;2023-08-20T03:16:05;96482;;;21.8;80.9
77469;BME280;68840;50.272;12.818;2023-08-20T03:18:06;96484;;;21.8;81.0
77469;BME280;68840;50.272;12.818;2023-08-20T03:20:06;96484;;;21.8;81.2
77469;BME280;68840;50.272;12.818;2023-08-20T03:22:05;96483;;;21.8;81.2
77469;BME280;68840;50.272;12.818;2023-08-20T03:24:06;96481;;;21.8;81.1
77469;BME280;68840;50.272;12.818;2023-08-20T03:26:05;96482;;;21.8;81.1
77469;BME280;68840;50.272;12.818;2023-08-20T03:28:05;96483;;;21.7;81.0
77469;BME280;68840;50.272;12.818;2023-08-20T03:30:06;96482;;;21.7;81.1
77469;BME280;68840;50.272;12.818;2023-08-20T03:32:05;96481;;;21.7;81.3
77469;BME280;68840;50.272;12.818;2023-08-20T03:34:05;96481;;;21.7;81.3
77469;BME280;68840;50.272;12.818;2023-08-20T03:36:05;96480;;;21.6;81.3
77469;BME280;68840;50.272;12.818;2023-08-20T03:38:05;96480;;;21.6;81.6
77469;BME280;68840;50.272;12.818;2023-08-20T03:40:06;96482;;;21.6;81.8
77469;BME280;68840;50.272;12.818;2023-08-20T03:42:05;96484;;;21.6;81.9
77469;BME280;68840;50.272;12.818;2023-08-20T03:44:05;96484;;;21.6;81.5
77469;BME280;68840;50.272;12.818;2023-08-20T03:46:05;96485;;;21.7;81.2
77469;BME280;68840;50.272;12.818;2023-08-20T03:48:06;96487;;;21.7;80.9
77469;BME280;68840;50.272;12.818;2023-08-20T03:50:06;96490;;;21.7;81.0
77469;BME280;68840;50.272;12.818;2023-08-20T03:52:06;96490;;;21.7;80.7
77469;BME280;68840;50.272;12.818;2023-08-20T03:54:05;96491;;;21.7;81.1
77469;BME280;68840;50.272;12.818;2023-08-20T03:56:05;96489;;;21.6;81.2
77469;BME280;68840;50.272;12.818;2023-08-20T03:58:05;96490;;;21.6;81.3
77469;BME280;68840;50.272;12.818;2023-08-20T04:00:08;96492;;;21.6;80.7
77469;BME280;68840;50.272;12.818;2023-08-20T04:02:05;96492;;;21.6;80.1
77469;BME280;68840;50.272;12.818;2023-08-20T04:04:05;96492;;;21.5;79.6
77469;BME280;68840;50.272;12.818;2023-08-20T04:06:06;96493;;;21.5;80.0
77469;BME280;68840;50.272;12.818;2023-08-20T04:08:06;96494;;;21.5;80.2
77469;BME280;68840;50.272;12.818;2023-08-20T04:10:08;96495;;;21.5;80.2
77469;BME280;68840;50.272;12.818;2023-08-20T04:12:06;96495;;;21.5;80.1
77469;BME280;68840;50.272;12.818;2023-08-20T04:14:05;96495;;;21.4;80.6
77469;BME280;68840;50.272;12.818;2023-08-20T04:16:05;96494;;;21.4;81.0
77469;BME280;68840;50.272;12.818;2023-08-20T04:18:06;96495;;;21.4;81.0
77469;BME280;68840;50.272;12.818;2023-08-20T04:20:08;96495;;;21.3;81.6
77469;BME280;68840;50.272;12.818;2023-08-20T04:22:05;96497;;;21.3;81.9
77469;BME280;68840;50.272;12.818;2023-08-20T04:24:06;96497;;;21.3;82.3
77469;BME280;68840;50.272;12.818;2023-08-20T04:26:05;96500;;;21.2;82.0
77469;BME280;68840;50.272;12.818;2023-08-20T04:28:05;96502;;;21.2;82.0
77469;BME280;68840;50.272;12.818;2023-08-20T04:30:06;96503;;;21.2;80.3
77469;BME280;68840;50.272;12.818;2023-08-20T04:32:06;96506;;;21.1;81.0
77469;BME280;68840;50.272;12.818;2023-08-20T04:34:05;96508;;;21.1;81.7
77469;BME280;68840;50.272;12.818;2023-08-20T04:36:06;96510;;;21.1;81.1
77469;BME280;68840;50.272;12.818;2023-08-20T04:38:05;96512;;;21.1;80.4
77469;BME280;68840;50.272;12.818;2023-08-20T04:40:07;96515;;;21.0;82.0
77469;BME280;68840;50.272;12.818;2023-08-20T04:42:06;96514;;;21.0;81.9
77469;BME280;68840;50.272;12.818;2023-08-20T04:44:05;96514;;;21.0;83.1
77469;BME280;68840;50.272;12.818;2023-08-20T04:46:05;96514;;;21.0;83.2
77469;BME280;68840;50.272;12.818;2023-08-20T04:48:05;96516;;;21.0;82.3
77469;BME280;68840;50.272;12.818;2023-08-20T04:50:06;96517;;;21.0;81.3
77469;BME280;68840;50.272;12.818;2023-08-20T04:52:06;96518;;;21.0;81.7
77469;BME280;68840;50.272;12.818;2023-08-20T04:54:05;96518;;;21.0;82.5
77469;BME280;68840;50.272;12.818;2023-08-20T04:56:05;96520;;;21.0;83.8
77469;BME280;68840;50.272;12.818;2023-08-20T04:58:05;96523;;;21.1;84.7
77469;BME280;68840;50.272;12.818;2023-08-20T05:00:07;96524;;;21.1;85.8
77469;BME280;68840;50.272;12.818;2023-08-20T05:02:05;96527;;;21.1;85.9
77469;BME280;68840;50.272;12.818;2023-08-20T05:04:06;96529;;;21.1;86.8
77469;BME280;68840;50.272;12.818;2023-08-20T05:06:05;96531;;;21.2;87.4
77469;BME280;68840;50.272;12.818;2023-08-20T05:08:05;96530;;;21.2;87.2
77469;BME280;68840;50.272;12.818;2023-08-20T05:10:06;96529;;;21.3;87.8
77469;BME280;68840;50.272;12.818;2023-08-20T05:12:06;96531;;;21.3;88.5
77469;BME280;68840;50.272;12.818;2023-08-20T05:14:05;96533;;;21.4;87.9
77469;BME280;68840;50.272;12.818;2023-08-20T05:16:05;96534;;;21.5;87.5
77469;BME280;68840;50.272;12.818;2023-08-20T05:18:05;96535;;;21.5;87.7
77469;BME280;68840;50.272;12.818;2023-08-20T05:20:06;96536;;;21.6;87.0
77469;BME280;68840;50.272;12.818;2023-08-20T05:22:05;96538;;;21.6;86.6
77469;BME280;68840;50.272;12.818;2023-08-20T05:24:06;96539;;;21.6;86.6
77469;BME280;68840;50.272;12.818;2023-08-20T05:26:06;96539;;;21.7;85.9
77469;BME280;68840;50.272;12.818;2023-08-20T05:28:05;96538;;;21.7;86.3
77469;BME280;68840;50.272;12.818;2023-08-20T05:30:08;96538;;;21.8;86.5
77469;BME280;68840;50.272;12.818;2023-08-20T05:32:05;96542;;;21.8;86.2
77469;BME280;68840;50.272;12.818;2023-08-20T05:34:06;96546;;;21.8;85.7
77469;BME280;68840;50.272;12.818;2023-08-20T05:36:05;96548;;;21.8;85.9
77469;BME280;68840;50.272;12.818;2023-08-20T05:38:05;96547;;;21.8;86.0
77469;BME280;68840;50.272;12.818;2023-08-20T05:40:08;96550;;;21.9;86.1
77469;BME280;68840;50.272;12.818;2023-08-20T05:42:05;96551;;;21.8;85.6
77469;BME280;68840;50.272;12.818;2023-08-20T05:44:05;96549;;;21.9;85.7
77469;BME280;68840;50.272;12.818;2023-08-20T05:46:05;96549;;;21.9;86.4
77469;BME280;68840;50.272;12.818;2023-08-20T05:48:06;96548;;;21.9;85.6
77469;BME280;68840;50.272;12.818;2023-08-20T05:50:06;96552;;;21.9;85.4
77469;BME280;68840;50.272;12.818;2023-08-20T05:52:05;96553;;;21.9;86.1
77469;BME280;68840;50.272;12.818;2023-08-20T05:54:05;96554;;;21.9;86.6
77469;BME280;68840;50.272;12.818;2023-08-20T05:56:05;96556;;;21.9;86.0
77469;BME280;68840;50.272;12.818;2023-08-20T05:58:05;96557;;;22.0;86.4
77469;BME280;68840;50.272;12.818;2023-08-20T06:00:07;96557;;;22.0;88.0
77469;BME280;68840;50.272;12.818;2023-08-20T06:02:06;96558;;;22.0;85.3
77469;BME280;68840;50.272;12.818;2023-08-20T06:04:05;96557;;;22.1;88.2
77469;BME280;68840;50.272;12.818;2023-08-20T06:06:05;96560;;;22.1;88.4
77469;BME280;68840;50.272;12.818;2023-08-20T06:08:06;96563;;;22.2;85.6
77469;BME280;68840;50.272;12.818;2023-08-20T06:10:07;96562;;;22.3;84.0
77469;BME280;68840;50.272;12.818;2023-08-20T06:12:06;96556;;;22.4;85.5
77469;BME280;68840;50.272;12.818;2023-08-20T06:14:05;96556;;;22.5;83.7
77469;BME280;68840;50.272;12.818;2023-08-20T06:16:07;96556;;;22.5;82.4
77469;BME280;68840;50.272;12.818;2023-08-20T06:18:05;96555;;;22.6;80.3
77469;BME280;68840;50.272;12.818;2023-08-20T06:20:08;96556;;;22.6;80.7
77469;BME280;68840;50.272;12.818;2023-08-20T06:22:05;96558;;;22.7;81.0
77469;BME280;68840;50.272;12.818;2023-08-20T06:24:06;96557;;;22.8;81.2
77469;BME280;68840;50.272;12.818;2023-08-20T06:26:05;96557;;;22.9;79.1
77469;BME280;68840;50.272;12.818;2023-08-20T06:28:05;96556;;;23.0;80.3
77469;BME280;68840;50.272;12.818;2023-08-20T06:30:07;96555;;;23.0;80.2
77469;BME280;68840;50.272;12.818;2023-08-20T06:32:05;96554;;;23.1;77.9
77469;BME280;68840;50.272;12.818;2023-08-20T06:34:05;96554;;;23.1;77.5
77469;BME280;68840;50.272;12.818;2023-08-20T06:36:06;96557;;;23.2;78.2
77469;BME280;68840;50.272;12.818;2023-08-20T06:38:06;96559;;;23.3;77.4
77469;BME280;68840;50.272;12.818;2023-08-20T06:40:06;96558;;;23.4;77.0
77469;BME280;68840;50.272;12.818;2023-08-20T06:42:05;96558;;;23.4;75.8
77469;BME280;68840;50.272;12.818;2023-08-20T06:44:05;96563;;;23.5;75.2
77469;BME280;68840;50.272;12.818;2023-08-20T06:46:05;96563;;;23.5;75.4
77469;BME280;68840;50.272;12.818;2023-08-20T06:48:06;96563;;;23.5;78.1
77469;BME280;68840;50.272;12.818;2023-08-20T06:50:06;96561;;;23.6;76.8
77469;BME280;68840;50.272;12.818;2023-08-20T06:52:05;96559;;;23.6;74.8
77469;BME280;68840;50.272;12.818;2023-08-20T06:54:06;96555;;;23.7;75.9
77469;BME280;68840;50.272;12.818;2023-08-20T06:56:06;96553;;;23.7;77.0
77469;BME280;68840;50.272;12.818;2023-08-20T06:58:05;96553;;;23.8;75.3
77469;BME280;68840;50.272;12.818;2023-08-20T07:00:06;96555;;;23.8;75.0
77469;BME280;68840;50.272;12.818;2023-08-20T07:02:05;96558;;;23.8;76.2
77469;BME280;68840;50.272;12.818;2023-08-20T07:04:05;96563;;;23.9;76.7
77469;BME280;68840;50.272;12.818;2023-08-20T07:06:06;96566;;;24.0;74.7
77469;BME280;68840;50.272;12.818;2023-08-20T07:08:05;96568;;;24.1;76.3
77469;BME280;68840;50.272;12.818;2023-08-20T07:10:06;96570;;;24.2;73.0
77469;BME280;68840;50.272;12.818;2023-08-20T07:12:05;96572;;;24.3;73.8
77469;BME280;68840;50.272;12.818;2023-08-20T07:14:05;96575;;;24.4;75.5
77469;BME280;68840;50.272;12.818;2023-08-20T07:16:05;96578;;;24.4;72.7
77469;BME280;68840;50.272;12.818;2023-08-20T07:18:05;96581;;;24.5;74.2
77469;BME280;68840;50.272;12.818;2023-08-20T07:20:07;96584;;;24.6;73.6
77469;BME280;68840;50.272;12.818;2023-08-20T07:22:05;96589;;;24.6;73.5
77469;BME280;68840;50.272;12.818;2023-08-20T07:24:06;96591;;;24.7;75.8
77469;BME280;68840;50.272;12.818;2023-08-20T07:26:07;96594;;;24.8;73.3
77469;BME280;68840;50.272;12.818;2023-08-20T07:28:06;96593;;;24.9;74.1
77469;BME280;68840;50.272;12.818;2023-08-20T07:30:06;96589;;;25.0;74.8
77469;BME280;68840;50.272;12.818;2023-08-20T07:32:05;96590;;;25.1;76.0
77469;BME280;68840;50.272;12.818;2023-08-20T07:34:05;96587;;;25.2;72.1
77469;BME280;68840;50.272;12.818;2023-08-20T07:36:06;96588;;;25.4;72.9
77469;BME280;68840;50.272;12.818;2023-08-20T07:38:05;96590;;;25.5;71.0
77469;BME280;68840;50.272;12.818;2023-08-20T07:40:06;96594;;;25.6;71.0
77469;BME280;68840;50.272;12.818;2023-08-20T07:42:06;96592;;;25.7;68.5
77469;BME280;68840;50.272;12.818;2023-08-20T07:44:05;96590;;;25.8;67.9
77469;BME280;68840;50.272;12.818;2023-08-20T07:46:06;96591;;;25.9;68.3
77469;BME280;68840;50.272;12.818;2023-08-20T07:48:05;96591;;;25.9;69.3
77469;BME280;68840;50.272;12.818;2023-08-20T07:50:06;96592;;;26.0;68.4
77469;BME280;68840;50.272;12.818;2023-08-20T07:52:05;96591;;;26.1;68.1
77469;BME280;68840;50.272;12.818;2023-08-20T07:54:05;96591;;;26.2;69.1
77469;BME280;68840;50.272;12.818;2023-08-20T07:56:05;96591;;;26.4;68.9
77469;BME280;68840;50.272;12.818;2023-08-20T07:58:05;96592;;;26.5;68.2
77469;BME280;68840;50.272;12.818;2023-08-20T08:00:06;96593;;;26.7;66.8
77469;BME280;68840;50.272;12.818;2023-08-20T08:02:06;96592;;;26.8;69.0
77469;BME280;68840;50.272;12.818;2023-08-20T08:04:05;96591;;;26.9;68.2
77469;BME280;68840;50.272;12.818;2023-08-20T08:06:05;96591;;;27.0;68.3
77469;BME280;68840;50.272;12.818;2023-08-20T08:08:06;96588;;;27.1;66.9
77469;BME280;68840;50.272;12.818;2023-08-20T08:10:06;96586;;;27.2;70.8
77469;BME280;68840;50.272;12.818;2023-08-20T08:12:05;96589;;;27.4;66.3
77469;BME280;68840;50.272;12.818;2023-08-20T08:14:05;96592;;;27.5;64.3
77469;BME280;68840;50.272;12.818;2023-08-20T08:16:06;96594;;;27.6;66.2
77469;BME280;68840;50.272;12.818;2023-08-20T08:18:07;96596;;;27.7;65.8
77469;BME280;68840;50.272;12.818;2023-08-20T08:20:06;96597;;;27.8;66.4
77469;BME280;68840;50.272;12.818;2023-08-20T08:22:05;96596;;;27.9;63.4
77469;BME280;68840;50.272;12.818;2023-08-20T08:24:05;96596;;;28.0;63.7
77469;BME280;68840;50.272;12.818;2023-08-20T08:26:05;96595;;;28.0;62.4
77469;BME280;68840;50.272;12.818;2023-08-20T08:28:06;96596;;;28.1;68.2
77469;BME280;68840;50.272;12.818;2023-08-20T08:30:06;96596;;;28.1;62.4
77469;BME280;68840;50.272;12.818;2023-08-20T08:32:05;96597;;;28.2;64.1
77469;BME280;68840;50.272;12.818;2023-08-20T08:34:05;96598;;;28.3;64.2
77469;BME280;68840;50.272;12.818;2023-08-20T08:36:06;96599;;;28.4;64.3
77469;BME280;68840;50.272;12.818;2023-08-20T08:38:05;96599;;;28.5;62.6
77469;BME280;68840;50.272;12.818;2023-08-20T08:40:06;96599;;;28.7;62.2
77469;BME280;68840;50.272;12.818;2023-08-20T08:42:07;96600;;;28.8;61.7
77469;BME280;68840;50.272;12.818;2023-08-20T08:44:08;96600;;;28.9;60.8
77469;BME280;68840;50.272;12.818;2023-08-20T08:46:07;96600;;;28.9;60.9
77469;BME280;68840;50.272;12.818;2023-08-20T08:48:06;96598;;;29.0;58.5
77469;BME280;68840;50.272;12.818;2023-08-20T08:50:07;96598;;;29.1;58.7
77469;BME280;68840;50.272;12.818;2023-08-20T08:52:08;96601;;;29.1;59.7
77469;BME280;68840;50.272;12.818;2023-08-20T08:54:07;96602;;;29.2;61.4
77469;BME280;68840;50.272;12.818;2023-08-20T08:56:05;96603;;;29.3;59.8
77469;BME280;68840;50.272;12.818;2023-08-20T08:58:06;96600;;;29.4;58.8
77469;BME280;68840;50.272;12.818;2023-08-20T09:00:07;96598;;;29.5;62.6
77469;BME280;68840;50.272;12.818;2023-08-20T09:02:08;96598;;;29.6;61.3
77469;BME280;68840;50.272;12.818;2023-08-20T09:04:06;96599;;;29.7;63.1
77469;BME280;68840;50.272;12.818;2023-08-20T09:06:09;96599;;;29.8;62.5
77469;BME280;68840;50.272;12.818;2023-08-20T09:08:06;96600;;;29.9;57.4
77469;BME280;68840;50.272;12.818;2023-08-20T09:10:06;96603;;;30.0;56.7
77469;BME280;68840;50.272;12.818;2023-08-20T09:12:12;96601;;;30.0;56.7
77469;BME280;68840;50.272;12.818;2023-08-20T09:14:05;96600;;;30.0;57.9
77469;BME280;68840;50.272;12.818;2023-08-20T09:16:06;96600;;;30.1;60.6
77469;BME280;68840;50.272;12.818;2023-08-20T09:18:09;96600;;;30.2;56.5
77469;BME280;68840;50.272;12.818;2023-08-20T09:20:06;96600;;;30.2;56.8
77469;BME280;68840;50.272;12.818;2023-08-20T09:22:05;96601;;;30.2;56.1
77469;BME280;68840;50.272;12.818;2023-08-20T09:24:06;96599;;;30.3;55.0
77469;BME280;68840;50.272;12.818;2023-08-20T09:26:07;96599;;;30.3;52.3
77469;BME280;68840;50.272;12.818;2023-08-20T09:28:06;96598;;;30.3;53.9
77469;BME280;68840;50.272;12.818;2023-08-20T09:30:06;96599;;;30.4;54.4
77469;BME280;68840;50.272;12.818;2023-08-20T09:32:05;96602;;;30.5;54.9
77469;BME280;68840;50.272;12.818;2023-08-20T09:34:05;96607;;;30.5;55.0
77469;BME280;68840;50.272;12.818;2023-08-20T09:36:07;96607;;;30.6;55.8
77469;BME280;68840;50.272;12.818;2023-08-20T09:38:05;96607;;;30.6;52.5
77469;BME280;68840;50.272;12.818;2023-08-20T09:40:06;96606;;;30.7;52.0
77469;BME280;68840;50.272;12.818;2023-08-20T09:42:06;96607;;;30.8;50.9
77469;BME280;68840;50.272;12.818;2023-08-20T09:44:06;96608;;;30.9;49.2
77469;BME280;68840;50.272;12.818;2023-08-20T09:46:07;96608;;;31.0;49.5
77469;BME280;68840;50.272;12.818;2023-08-20T09:48:09;96610;;;31.0;49.7
77469;BME280;68840;50.272;12.818;2023-08-20T09:50:10;96608;;;31.1;49.7
77469;BME280;68840;50.272;12.818;2023-08-20T09:52:08;96609;;;31.2;49.6
77469;BME280;68840;50.272;12.818;2023-08-20T09:54:12;96608;;;31.3;49.1
77469;BME280;68840;50.272;12.818;2023-08-20T09:56:10;96608;;;31.4;47.2
77469;BME280;68840;50.272;12.818;2023-08-20T09:58:06;96607;;;31.5;49.1
77469;BME280;68840;50.272;12.818;2023-08-20T10:00:10;96608;;;31.6;47.9
77469;BME280;68840;50.272;12.818;2023-08-20T10:02:07;96609;;;31.7;47.8
77469;BME280;68840;50.272;12.818;2023-08-20T10:04:06;96613;;;31.8;47.7
77469;BME280;68840;50.272;12.818;2023-08-20T10:06:06;96616;;;31.9;46.6
77469;BME280;68840;50.272;12.818;2023-08-20T10:08:06;96617;;;31.9;46.6
77469;BME280;68840;50.272;12.818;2023-08-20T10:10:07;96617;;;31.9;45.7
77469;BME280;68840;50.272;12.818;2023-08-20T10:12:06;96619;;;31.9;50.0
77469;BME280;68840;50.272;12.818;2023-08-20T10:14:06;96616;;;31.9;46.8
77469;BME280;68840;50.272;12.818;2023-08-20T10:16:06;96616;;;31.9;46.3
77469;BME280;68840;50.272;12.818;2023-08-20T10:18:07;96614;;;31.8;47.6
77469;BME280;68840;50.272;12.818;2023-08-20T10:20:08;96610;;;31.8;47.4
77469;BME280;68840;50.272;12.818;2023-08-20T10:22:07;96601;;;31.9;46.3
77469;BME280;68840;50.272;12.818;2023-08-20T10:24:06;96596;;;31.9;47.7
77469;BME280;68840;50.272;12.818;2023-08-20T10:26:07;96592;;;32.0;45.9
77469;BME280;68840;50.272;12.818;2023-08-20T10:28:11;96591;;;32.2;44.7
77469;BME280;68840;50.272;12.818;2023-08-20T10:30:16;96588;;;32.2;45.5
77469;BME280;68840;50.272;12.818;2023-08-20T10:32:06;96583;;;32.3;45.3
77469;BME280;68840;50.272;12.818;2023-08-20T10:34:05;96581;;;32.4;45.9
77469;BME280;68840;50.272;12.818;2023-08-20T10:36:08;96580;;;32.5;43.2
77469;BME280;68840;50.272;12.818;2023-08-20T10:38:07;96577;;;32.6;42.8
77469;BME280;68840;50.272;12.818;2023-08-20T10:40:07;96575;;;32.7;43.5
77469;BME280;68840;50.272;12.818;2023-08-20T10:42:26;96578;;;32.8;46.3
77469;BME280;68840;50.272;12.818;2023-08-20T10:44:05;96579;;;32.9;46.2
77469;BME280;68840;50.272;12.818;2023-08-20T10:46:10;96583;;;33.0;43.9
77469;BME280;68840;50.272;12.818;2023-08-20T10:48:06;96584;;;33.2;44.5
77469;BME280;68840;50.272;12.818;2023-08-20T10:50:08;96584;;;33.2;43.9
77469;BME280;68840;50.272;12.818;2023-08-20T10:52:06;96584;;;33.3;41.5
77469;BME280;68840;50.272;12.818;2023-08-20T10:54:07;96582;;;33.3;40.6
77469;BME280;68840;50.272;12.818;2023-08-20T10:56:10;96580;;;33.3;42.5
77469;BME280;68840;50.272;12.818;2023-08-20T10:58:06;96582;;;33.3;41.2
77469;BME280;68840;50.272;12.818;2023-08-20T11:00:15;96579;;;33.3;40.5
77469;BME280;68840;50.272;12.818;2023-08-20T11:02:12;96577;;;33.3;43.4
77469;BME280;68840;50.272;12.818;2023-08-20T11:04:07;96576;;;33.4;42.8
77469;BME280;68840;50.272;12.818;2023-08-20T11:06:06;96578;;;33.4;41.5
77469;BME280;68840;50.272;12.818;2023-08-20T11:08:08;96579;;;33.4;44.2
77469;BME280;68840;50.272;12.818;2023-08-20T11:10:07;96575;;;33.5;42.3
77469;BME280;68840;50.272;12.818;2023-08-20T11:12:06;96573;;;33.5;42.5